Time;durP1;ratioP1;P1;durP2;ratioP2;P2;SDS_P1;SDS_P2;PMS_P1;PMS_P2;Temp;Humidity;BMP_temperature;BMP_pressure;BME280_temperature;BME280_humidity;BME280_pressure;Samples;Min_cycle;Max_cycle;Signal;HPM_P1;HPM_P2
2022/06/05 00:01:06;;;;;;;12.90;9.35;;;;;;;30.01;52.36;100729.55;1738777;82;21036;-68
2022/06/05 00:03:45;;;;;;;12.90;9.50;;;;;;;30.01;52.48;100724.23;1741311;81;21591;-67
2022/06/05 00:06:33;;;;;;;14.90;9.90;;;;;;;30.11;52.13;100723.41;1739077;81;21027;-67
2022/06/05 00:09:41;;;;;;;13.00;9.33;;;;;;;29.67;52.55;100720.90;1742968;81;21064;-67
2022/06/05 00:12:13;;;;;;;14.40;9.48;;;;;;;30.13;51.92;100721.86;1734556;82;21133;-67
2022/06/05 00:14:42;;;;;;;13.60;9.35;;;;;;;29.80;52.49;100721.05;1732688;82;21080;-66
2022/06/05 00:17:19;;;;;;;12.23;8.70;;;;;;;29.81;52.63;100714.75;1740639;81;21094;-68
2022/06/05 00:19:53;;;;;;;10.95;8.98;;;;;;;30.03;51.74;100715.58;1740701;82;21012;-68
2022/06/05 00:22:20;;;;;;;14.93;9.40;;;;;;;29.83;52.21;100718.03;1729845;82;21559;-67
2022/06/05 00:24:48;;;;;;;12.60;8.73;;;;;;;29.84;52.27;100717.01;1734941;81;21058;-67
2022/06/05 00:27:23;;;;;;;11.73;8.80;;;;;;;30.03;51.69;100708.09;1725294;81;21079;-68
2022/06/05 00:30:09;;;;;;;14.73;8.88;;;;;;;29.78;51.80;100711.64;1737204;81;21537;-67
2022/06/05 00:33:01;;;;;;;12.95;9.03;;;;;;;29.92;52.21;100703.61;1725111;82;21541;-68
2022/06/05 00:35:32;;;;;;;12.40;9.10;;;;;;;30.00;52.09;100705.32;1733660;81;21496;-67
2022/06/05 00:38:19;;;;;;;16.60;10.35;;;;;;;30.00;52.36;100702.66;1732639;81;21081;-67
2022/06/05 00:41:29;;;;;;;16.30;10.60;;;;;;;29.92;52.30;100692.99;1699963;81;21075;-67
2022/06/05 00:44:05;;;;;;;14.28;9.20;;;;;;;29.88;52.15;100690.41;1715949;81;21050;-68
2022/06/05 00:46:34;;;;;;;13.00;9.38;;;;;;;30.05;51.72;100696.77;1732378;81;21103;-67
2022/06/05 00:49:02;;;;;;;14.45;9.85;;;;;;;29.99;51.69;100688.25;1748239;82;21107;-66
2022/06/05 00:51:30;;;;;;;14.73;9.73;;;;;;;29.94;51.80;100680.87;1722594;82;21656;-67
2022/06/05 00:53:56;;;;;;;13.22;9.83;;;;;;;29.80;51.91;100678.59;1728799;83;21471;-67
2022/06/05 00:56:24;;;;;;;12.73;9.85;;;;;;;29.87;51.83;100682.66;1704447;83;21520;-67
2022/06/05 00:58:52;;;;;;;15.35;9.60;;;;;;;29.83;51.90;100681.39;1723814;82;21076;-66
2022/06/05 01:01:22;;;;;;;15.70;9.60;;;;;;;29.80;52.32;100684.41;1723441;83;21077;-67
2022/06/05 01:03:50;;;;;;;13.98;9.13;;;;;;;29.76;52.34;100686.62;1723669;83;21080;-67
2022/06/05 01:06:17;;;;;;;12.60;9.90;;;;;;;29.48;52.88;100677.22;1722860;82;21053;-67
2022/06/05 01:08:45;;;;;;;16.77;9.68;;;;;;;29.46;52.98;100673.94;1745594;82;21571;-67
2022/06/05 01:21:27;;;;;;;15.53;10.82;;;;;;;29.09;53.98;100670.42;1701304;83;21064;-66
2022/06/05 01:27:42;;;;;;;16.37;10.80;;;;;;;29.14;53.89;100672.06;1711435;83;21476;-67
2022/06/05 01:30:22;;;;;;;15.40;10.60;;;;;;;29.00;54.05;100671.04;1710492;83;21609;-67
2022/06/05 01:33:19;;;;;;;13.25;10.68;;;;;;;29.22;53.88;100672.44;1701912;83;21551;-67
2022/06/05 01:36:10;;;;;;;15.32;10.35;;;;;;;29.06;54.13;100672.95;1672197;84;21607;-66
2022/06/05 01:39:15;;;;;;;13.15;9.75;;;;;;;29.17;53.79;100674.33;1670274;85;21078;-66
2022/06/05 01:42:09;;;;;;;12.05;9.73;;;;;;;29.31;53.63;100676.63;1671533;85;21063;-67
2022/06/05 01:44:50;;;;;;;14.20;10.10;;;;;;;29.23;54.02;100679.39;1657565;86;21119;-67
2022/06/05 01:53:59;;;;;;;11.43;9.60;;;;;;;29.65;53.14;100683.94;1575884;90;21195;-67
2022/06/05 01:56:58;;;;;;;13.90;9.33;;;;;;;29.55;53.50;100671.49;1562984;90;21851;-67
2022/06/05 02:00:16;;;;;;;9.58;8.40;;;;;;;29.79;52.96;100676.97;1569667;89;21130;-67
2022/06/05 02:03:23;;;;;;;11.15;9.20;;;;;;;30.12;52.44;100675.10;1615316;88;22714;-67
2022/06/05 02:11:51;;;;;;;11.15;8.90;;;;;;;30.30;52.36;100670.67;1651585;86;21176;-67
2022/06/05 02:14:18;;;;;;;12.40;9.30;;;;;;;30.20;52.66;100666.18;1685144;83;21522;-67
2022/06/05 02:16:45;;;;;;;14.15;10.03;;;;;;;30.38;52.45;100666.55;1710500;83;21063;-67
2022/06/05 02:19:37;;;;;;;15.88;9.30;;;;;;;30.30;52.79;100667.50;1708180;83;21588;-68
2022/06/05 02:22:31;;;;;;;12.20;9.35;;;;;;;30.23;53.24;100675.91;1725931;83;21147;-67
2022/06/05 02:25:05;;;;;;;10.98;8.70;;;;;;;30.19;52.85;100675.95;1717883;83;21058;-67
2022/06/05 02:27:33;;;;;;;19.12;9.65;;;;;;;29.95;53.36;100668.73;1725044;83;21009;-67
2022/06/05 02:30:00;;;;;;;13.98;8.40;;;;;;;30.13;52.96;100670.94;1723248;82;21479;-67
2022/06/05 02:33:06;;;;;;;12.65;9.00;;;;;;;30.13;52.62;100681.55;1700042;84;21024;-67
2022/06/05 02:36:21;;;;;;;14.05;8.58;;;;;;;30.00;52.91;100677.97;1710929;83;20986;-67
2022/06/05 02:42:46;;;;;;;11.08;8.65;;;;;;;29.92;53.54;100677.07;1652171;85;21092;-67
2022/06/05 02:55:18;;;;;;;11.22;7.45;;;;;;;30.25;52.91;100674.37;1707691;83;21146;-66
2022/06/05 02:58:01;;;;;;;8.80;7.42;;;;;;;30.27;52.22;100673.19;1711327;83;21530;-67
2022/06/05 03:03:37;;;;;;;;;;;;;;;;;;;;;
2022/06/05 03:06:14;;;;;;;12.65;8.68;;;;;;;30.93;51.51;100678.13;1703706;83;21078;-66
2022/06/05 03:08:51;;;;;;;13.78;8.50;;;;;;;30.91;51.78;100680.16;1707782;83;21118;-66
2022/06/05 03:11:19;;;;;;;11.10;8.33;;;;;;;31.01;52.05;100679.80;1721557;83;21514;-66
2022/06/05 03:13:57;;;;;;;18.75;8.15;;;;;;;31.20;51.68;100672.91;1696244;83;21071;-67
2022/06/05 03:16:47;;;;;;;11.15;8.15;;;;;;;31.37;51.54;100677.37;1726299;82;21081;-66
2022/06/05 03:19:30;;;;;;;10.03;8.20;;;;;;;31.39;51.43;100676.66;1725055;82;21050;-67
2022/06/05 03:21:57;;;;;;;10.93;8.40;;;;;;;31.17;51.59;100686.61;1720218;82;21025;-67
2022/06/05 03:24:34;;;;;;;14.03;8.43;;;;;;;31.11;51.78;100681.58;1695251;84;21186;-66
2022/06/05 03:27:01;;;;;;;12.03;7.62;;;;;;;31.29;51.44;100681.55;1689501;83;21159;-67
2022/06/05 03:29:28;;;;;;;11.88;7.60;;;;;;;31.39;50.98;100685.97;1703755;84;21104;-68
2022/06/05 03:32:02;;;;;;;9.90;7.00;;;;;;;31.49;50.35;100682.45;1726993;81;21066;-66
2022/06/05 03:34:28;;;;;;;11.80;7.40;;;;;;;31.93;49.51;100678.91;1717540;83;21083;-67
2022/06/05 03:36:59;;;;;;;11.75;8.45;;;;;;;31.95;50.05;100676.86;1715965;83;21129;-67
2022/06/05 03:39:27;;;;;;;13.38;7.92;;;;;;;31.76;50.59;100680.34;1714907;83;21104;-67
2022/06/05 03:41:54;;;;;;;13.48;7.97;;;;;;;31.82;50.82;100683.52;1711125;83;21048;-67
2022/06/05 03:44:21;;;;;;;11.25;8.00;;;;;;;31.83;50.86;100678.49;1721747;82;21065;-68
2022/06/05 03:46:48;;;;;;;10.55;7.85;;;;;;;32.14;49.83;100669.42;1724488;82;21027;-67
2022/06/05 03:49:15;;;;;;;11.63;8.25;;;;;;;32.32;49.41;100667.46;1719283;83;21039;-69
2022/06/05 03:52:14;;;;;;;12.78;7.60;;;;;;;32.26;49.54;100664.30;1724024;82;21537;-67
2022/06/05 03:54:42;;;;;;;9.63;6.78;;;;;;;32.27;50.26;100665.91;1685668;83;21049;-67
2022/06/05 03:57:09;;;;;;;7.75;6.60;;;;;;;32.19;49.95;100655.48;1726166;82;21037;-67
2022/06/05 03:59:37;;;;;;;10.75;5.80;;;;;;;32.37;49.49;100652.17;1721879;82;21042;-67
2022/06/05 04:02:05;;;;;;;7.72;5.80;;;;;;;32.62;48.37;100648.86;1725008;82;21035;-67
2022/06/05 04:04:33;;;;;;;7.20;5.75;;;;;;;32.40;47.97;100642.45;1726973;82;21625;-67
2022/06/05 04:07:20;;;;;;;7.58;5.65;;;;;;;32.20;48.30;100641.64;1715751;82;21079;-67
2022/06/05 04:12:52;;;;;;;9.70;5.83;;;;;;;31.99;48.20;100636.00;1723310;83;21089;-66
2022/06/05 04:18:43;;;;;;;9.83;6.50;;;;;;;32.98;47.00;100632.84;1719126;83;21018;-67
2022/06/05 04:24:13;;;;;;;9.88;5.97;;;;;;;33.82;45.12;100627.73;1681418;84;21043;-66
2022/06/05 04:27:05;;;;;;;10.65;6.37;;;;;;;33.52;45.64;100616.33;1659553;86;21108;-66
2022/06/05 04:29:45;;;;;;;10.10;6.67;;;;;;;33.36;44.90;100606.70;1686098;85;21036;-66
2022/06/05 04:32:16;;;;;;;9.85;6.55;;;;;;;33.71;45.57;100609.22;1687654;84;21015;-66
2022/06/05 04:34:43;;;;;;;9.83;6.67;;;;;;;33.35;45.82;100607.20;1661805;84;21119;-67
2022/06/05 04:37:11;;;;;;;11.90;7.15;;;;;;;33.80;45.72;100614.28;1686942;85;21602;-66
2022/06/05 04:39:38;;;;;;;11.38;6.40;;;;;;;33.69;45.60;100609.95;1683353;85;21122;-66
2022/06/05 04:42:05;;;;;;;9.95;6.08;;;;;;;33.49;46.06;100622.61;1649278;85;21072;-67
2022/06/05 04:44:33;;;;;;;9.33;6.40;;;;;;;34.20;45.61;100618.77;1687954;84;21090;-66
2022/06/05 04:47:00;;;;;;;12.43;7.10;;;;;;;34.28;45.35;100619.80;1687593;84;21574;-67
2022/06/05 04:49:27;;;;;;;14.05;7.12;;;;;;;33.73;45.68;100609.00;1660086;84;21036;-67
2022/06/05 04:52:00;;;;;;;9.73;6.83;;;;;;;33.78;45.74;100610.52;1698002;84;21081;-68
2022/06/05 04:54:27;;;;;;;12.98;7.20;;;;;;;34.01;45.59;100612.55;1712843;81;21548;-68
2022/06/05 04:57:08;;;;;;;12.90;7.33;;;;;;;33.73;46.44;100610.34;1737124;81;21031;-68
2022/06/05 04:59:35;;;;;;;13.40;7.40;;;;;;;33.90;46.41;100605.25;1743771;81;20985;-67
2022/06/05 05:02:09;;;;;;;11.95;7.25;;;;;;;33.63;46.68;100608.67;1716949;81;21059;-67
2022/06/05 05:04:36;;;;;;;11.40;6.72;;;;;;;33.69;46.63;100605.14;1732720;82;21076;-67
2022/06/05 05:07:04;;;;;;;10.93;7.25;;;;;;;33.57;46.73;100604.18;1735407;81;21515;-67
2022/06/05 05:09:31;;;;;;;10.88;6.87;;;;;;;33.44;47.14;100599.24;1733300;82;21060;-68
2022/06/05 05:12:11;;;;;;;11.22;7.42;;;;;;;33.67;46.81;100604.02;1674617;84;21055;-67
2022/06/05 05:14:39;;;;;;;12.85;7.37;;;;;;;33.81;46.48;100605.25;1678472;85;21103;-66
2022/06/05 05:17:07;;;;;;;11.73;7.58;;;;;;;33.58;46.44;100605.30;1716049;80;20968;-68
2022/06/05 05:19:34;;;;;;;14.45;7.75;;;;;;;33.86;46.36;100608.91;1748306;82;21032;-67
2022/06/05 05:22:06;;;;;;;12.85;7.47;;;;;;;33.23;47.21;100615.59;1736869;81;21036;-68
2022/06/05 05:24:51;;;;;;;9.03;7.33;;;;;;;33.73;46.96;100613.81;1715883;82;21554;-68
2022/06/05 05:27:21;;;;;;;11.73;7.40;;;;;;;33.59;47.44;100622.12;1737661;80;21086;-67
2022/06/05 05:29:48;;;;;;;10.58;7.37;;;;;;;33.66;47.03;100614.41;1730376;81;21077;-68
2022/06/05 05:32:16;;;;;;;9.75;7.05;;;;;;;34.17;47.29;100619.74;1737407;81;21032;-68
2022/06/05 05:34:49;;;;;;;14.03;7.35;;;;;;;34.34;46.61;100620.78;1735549;80;21050;-69
2022/06/05 05:37:16;;;;;;;11.68;6.30;;;;;;;34.44;46.49;100618.41;1743621;81;20964;-67
2022/06/05 05:42:37;;;;;;;9.55;6.80;;;;;;;34.49;46.54;100610.55;1728215;81;21076;-67
2022/06/05 05:45:06;;;;;;;15.48;7.17;;;;;;;34.81;46.73;100614.39;1738748;81;20952;-66
2022/06/05 05:47:34;;;;;;;10.60;7.45;;;;;;;35.05;45.48;100605.12;1733292;82;21487;-67
2022/06/05 05:50:39;;;;;;;13.08;7.15;;;;;;;34.74;46.72;100605.65;1732145;81;21062;-68
2022/06/05 05:53:17;;;;;;;11.13;6.70;;;;;;;34.85;46.38;100607.54;1744600;81;21525;-70
2022/06/05 05:55:59;;;;;;;9.13;7.12;;;;;;;35.25;45.90;100597.66;1703918;82;21047;-68
2022/06/05 05:58:26;;;;;;;9.23;6.45;;;;;;;34.82;47.10;100599.18;1709029;83;21071;-67
2022/06/05 06:04:18;;;;;;;9.15;7.12;;;;;;;35.59;46.06;100599.83;1723002;82;21020;-67
2022/06/05 06:06:49;;;;;;;9.88;6.70;;;;;;;35.24;46.31;100604.56;1722085;81;21026;-67
2022/06/05 06:09:41;;;;;;;11.12;6.58;;;;;;;35.24;46.32;100600.05;1711695;83;21052;-67
2022/06/05 06:12:10;;;;;;;8.38;6.45;;;;;;;35.32;46.80;100600.22;1709113;83;21528;-67
2022/06/05 06:14:44;;;;;;;10.18;6.75;;;;;;;35.84;45.58;100600.97;1703257;82;21062;-67
2022/06/05 06:17:47;;;;;;;9.23;6.62;;;;;;;35.72;46.08;100597.47;1722459;82;21453;-67
2022/06/05 06:23:26;;;;;;;9.33;6.22;;;;;;;35.62;46.94;100594.00;1734134;81;21031;-70
2022/06/05 06:25:53;;;;;;;13.68;7.00;;;;;;;35.62;46.94;100594.00;1724011;81;21003;-67
2022/06/05 06:28:19;;;;;;;11.12;6.83;;;;;;;35.92;45.88;100596.59;1729436;83;21004;-67
2022/06/05 06:31:20;;;;;;;8.75;6.58;;;;;;;35.36;46.99;100602.73;1736838;82;21111;-67
2022/06/05 06:33:48;;;;;;;9.30;6.60;;;;;;;35.54;47.08;100599.16;1735426;80;21098;-67
2022/06/05 06:36:18;;;;;;;10.25;7.08;;;;;;;36.00;46.66;100593.56;1698229;82;21062;-67
2022/06/05 06:39:20;;;;;;;8.45;6.35;;;;;;;36.32;46.27;100597.23;1711349;83;21036;-66
2022/06/05 06:41:51;;;;;;;8.38;6.50;;;;;;;36.93;45.73;100598.17;1734840;81;21171;-67
2022/06/05 06:44:19;;;;;;;10.82;6.87;;;;;;;36.53;45.39;100594.95;1743569;81;21053;-67
2022/06/05 06:46:46;;;;;;;11.00;6.83;;;;;;;36.84;45.05;100594.53;1711106;81;21126;-67
2022/06/05 06:49:15;;;;;;;8.10;6.55;;;;;;;37.34;43.98;100593.53;1744106;82;21071;-68
2022/06/05 06:51:42;;;;;;;10.13;6.90;;;;;;;36.80;44.89;100590.70;1747670;81;21079;-66
2022/06/05 06:54:09;;;;;;;10.93;6.50;;;;;;;36.83;46.26;100590.20;1736796;80;21025;-67
2022/06/05 06:56:36;;;;;;;10.38;7.17;;;;;;;37.31;46.21;100592.16;1745060;80;21055;-67
2022/06/05 06:59:05;;;;;;;9.98;7.60;;;;;;;37.39;44.61;100589.57;1748304;81;20996;-67
2022/06/05 07:01:33;;;;;;;12.20;7.15;;;;;;;37.08;44.39;100572.93;1732555;82;21011;-67
2022/06/05 07:04:00;;;;;;;12.28;7.17;;;;;;;36.64;45.22;100573.50;1742075;80;21078;-67
2022/06/05 07:06:28;;;;;;;10.88;6.90;;;;;;;37.03;44.92;100565.61;1736521;80;21492;-66
2022/06/05 07:08:55;;;;;;;12.70;6.72;;;;;;;37.88;44.27;100559.73;1730033;81;21080;-66
2022/06/05 07:11:22;;;;;;;10.18;6.85;;;;;;;38.06;44.12;100552.45;1724338;81;21019;-67
2022/06/05 07:13:51;;;;;;;9.43;6.80;;;;;;;38.08;43.23;100551.70;1730176;81;21634;-65
2022/06/05 07:16:21;;;;;;;10.48;6.87;;;;;;;38.61;43.49;100560.13;1739237;81;21099;-65
2022/06/05 07:18:49;;;;;;;11.15;6.60;;;;;;;38.16;43.20;100559.83;1737537;81;21494;-67
2022/06/05 07:21:20;;;;;;;9.35;6.75;;;;;;;38.26;43.09;100568.86;1734570;82;21020;-66
2022/06/05 07:23:48;;;;;;;8.85;6.58;;;;;;;37.60;44.15;100566.05;1696564;83;21034;-68
2022/06/05 07:26:19;;;;;;;8.48;6.80;;;;;;;38.08;43.70;100565.94;1702211;83;21062;-67
2022/06/05 07:28:47;;;;;;;7.28;6.22;;;;;;;38.29;43.54;100564.84;1697629;83;21072;-68
2022/06/05 07:31:17;;;;;;;11.78;7.17;;;;;;;38.96;43.03;100562.87;1716155;83;21622;-66
2022/06/05 07:33:44;;;;;;;8.63;6.33;;;;;;;38.27;43.11;100565.09;1700466;83;21046;-66
2022/06/05 07:36:16;;;;;;;7.95;6.20;;;;;;;39.25;42.35;100565.56;1732468;81;21055;-67
2022/06/05 07:38:45;;;;;;;8.18;6.50;;;;;;;39.38;41.53;100563.50;1740901;82;21480;-66
2022/06/05 07:41:23;;;;;;;8.88;6.05;;;;;;;38.91;42.06;100559.59;1734079;81;21104;-67
2022/06/05 07:43:50;;;;;;;7.50;5.95;;;;;;;39.21;41.17;100566.34;1733373;81;21014;-67
2022/06/05 07:46:18;;;;;;;7.40;5.80;;;;;;;39.24;42.09;100563.95;1698949;83;21529;-66
2022/06/05 07:48:46;;;;;;;8.30;5.20;;;;;;;39.43;40.61;100567.62;1701547;83;21002;-66
2022/06/05 07:54:29;;;;;;;6.50;4.97;;;;;;;40.05;40.00;100558.05;1707976;83;21530;-67
2022/06/05 07:57:04;;;;;;;10.10;4.90;;;;;;;39.16;40.54;100564.97;1700270;83;21537;-66
2022/06/05 07:59:36;;;;;;;10.70;5.35;;;;;;;39.63;40.92;100562.36;1708060;83;21079;-66
2022/06/05 08:02:08;;;;;;;6.45;5.22;;;;;;;40.56;40.24;100552.83;1703023;83;21013;-66
2022/06/05 08:04:36;;;;;;;8.83;5.78;;;;;;;40.40;39.26;100553.33;1708664;83;21070;-67
2022/06/05 08:07:06;;;;;;;8.75;5.85;;;;;;;40.54;38.48;100552.83;1702387;83;21087;-66
2022/06/05 08:09:35;;;;;;;8.25;5.67;;;;;;;41.15;38.15;100555.60;1709069;84;21056;-66
2022/06/05 08:12:06;;;;;;;10.43;5.25;;;;;;;41.60;37.06;100559.37;1695731;83;21028;-66
2022/06/05 08:14:35;;;;;;;9.28;5.58;;;;;;;41.70;37.20;100557.73;1682134;83;21083;-67
2022/06/05 08:17:06;;;;;;;5.87;4.75;;;;;;;40.94;37.12;100550.75;1705801;83;21108;-67
2022/06/05 08:19:33;;;;;;;7.60;5.53;;;;;;;41.42;37.74;100546.41;1699506;83;21583;-66
2022/06/05 08:22:00;;;;;;;10.15;5.05;;;;;;;41.74;36.83;100549.34;1694596;84;21520;-67
2022/06/05 08:24:27;;;;;;;7.50;5.20;;;;;;;41.59;35.94;100544.77;1709249;83;21138;-67
2022/06/05 08:26:55;;;;;;;6.65;5.15;;;;;;;41.90;36.63;100541.45;1721080;82;21092;-66
2022/06/05 08:29:22;;;;;;;6.47;4.80;;;;;;;41.46;37.71;100542.08;1697946;83;21083;-66
2022/06/05 08:31:49;;;;;;;5.78;5.00;;;;;;;41.41;37.63;100544.81;1701693;83;21040;-67
2022/06/05 08:34:16;;;;;;;8.78;4.78;;;;;;;40.77;37.42;100549.64;1705176;83;21056;-67
2022/06/05 08:36:43;;;;;;;6.53;4.55;;;;;;;40.31;37.12;100546.84;1692791;83;21033;-67
2022/06/05 08:42:23;;;;;;;9.03;4.78;;;;;;;40.99;37.10;100543.19;1702074;83;21068;-66
2022/06/05 08:45:11;;;;;;;6.67;5.08;;;;;;;41.13;36.93;100537.51;1697401;83;21037;-67
2022/06/05 08:47:47;;;;;;;5.78;5.17;;;;;;;40.21;37.37;100552.15;1704666;83;21210;-68
2022/06/05 08:50:43;;;;;;;5.78;5.00;;;;;;;38.82;39.28;100543.64;1703854;84;21052;-66
2022/06/05 08:53:39;;;;;;;6.45;5.50;;;;;;;38.54;39.99;100545.52;1706164;83;21118;-66
2022/06/05 08:56:11;;;;;;;6.05;4.85;;;;;;;38.81;39.36;100544.19;1695000;83;21067;-67
2022/06/05 08:58:56;;;;;;;7.17;5.03;;;;;;;38.75;39.12;100545.20;1696377;83;21064;-67
2022/06/05 09:01:49;;;;;;;7.47;4.97;;;;;;;38.72;38.83;100540.31;1699503;83;21082;-65
2022/06/05 09:04:23;;;;;;;;;;;;;;;38.91;38.54;100547.48;1698172;83;21046;-66
2022/06/05 09:06:54;;;;;;;7.90;5.50;;;;;;;39.05;39.69;100537.97;1703152;83;20117;-65
2022/06/05 09:09:29;;;;;;;7.40;5.53;;;;;;;39.54;39.23;100547.77;1734639;82;21071;-65
2022/06/05 09:12:16;;;;;;;6.75;5.17;;;;;;;39.56;39.59;100548.33;1742331;82;21008;-66
2022/06/05 09:15:08;;;;;;;8.95;5.87;;;;;;;39.36;38.16;100538.70;1742266;82;22018;-65
2022/06/05 09:17:37;;;;;;;8.00;5.67;;;;;;;39.54;37.84;100541.04;1730049;82;21581;-66
2022/06/05 09:20:08;;;;;;;8.05;5.85;;;;;;;39.87;37.94;100533.70;1705847;82;21090;-67
2022/06/05 09:22:50;;;;;;;7.28;5.80;;;;;;;39.83;38.00;100526.64;1734131;82;21095;-66
2022/06/05 09:25:29;;;;;;;7.92;6.20;;;;;;;38.99;38.87;100516.62;1747478;81;21014;-66
2022/06/05 09:28:29;;;;;;;9.68;7.40;;;;;;;39.30;37.98;100528.45;1741191;82;21640;-66
2022/06/05 09:31:40;;;;;;;9.30;6.90;;;;;;;38.82;38.80;100523.45;1699319;82;21036;-66
2022/06/05 09:34:18;;;;;;;10.55;6.60;;;;;;;38.88;38.70;100535.89;1732561;81;21045;-65
2022/06/05 09:36:57;;;;;;;7.95;6.83;;;;;;;39.18;38.03;100533.22;1746412;82;21048;-65
2022/06/05 09:39:35;;;;;;;7.50;6.55;;;;;;;39.86;37.98;100525.32;1731502;82;21056;-65
2022/06/05 09:42:38;;;;;;;7.65;6.40;;;;;;;39.79;38.07;100530.12;1745950;82;21063;-65
2022/06/05 09:45:36;;;;;;;10.07;6.30;;;;;;;39.82;38.46;100525.55;1724130;81;21712;-66
2022/06/05 09:48:27;;;;;;;9.65;6.47;;;;;;;38.99;38.54;100522.02;1726844;82;21055;-65
2022/06/05 09:50:54;;;;;;;10.00;5.80;;;;;;;39.47;37.96;100522.94;1732372;81;21040;-65
2022/06/05 09:53:29;;;;;;;7.80;5.80;;;;;;;39.75;36.93;100524.44;1747093;82;21071;-66
2022/06/05 09:56:26;;;;;;;8.00;5.65;;;;;;;39.30;36.95;100524.93;1714316;82;21028;-66
2022/06/05 09:59:08;;;;;;;7.92;5.12;;;;;;;39.55;35.93;100518.41;1726572;82;21007;-66
2022/06/05 10:01:49;;;;;;;8.18;5.60;;;;;;;40.43;34.64;100519.09;1739058;81;21072;-66
2022/06/05 10:04:21;;;;;;;7.33;5.70;;;;;;;40.58;35.32;100521.54;1749424;80;20984;-65
2022/06/05 10:06:56;;;;;;;7.30;5.58;;;;;;;40.16;35.22;100515.74;1731625;82;21094;-66
2022/06/05 10:09:27;;;;;;;7.42;6.62;;;;;;;40.13;34.91;100509.52;1735551;80;21114;-66
2022/06/05 10:12:10;;;;;;;8.35;5.92;;;;;;;40.06;34.74;100510.58;1704599;80;21032;-67
2022/06/05 10:15:00;;;;;;;9.10;5.35;;;;;;;40.58;35.16;100506.70;1711590;81;21087;-65
2022/06/05 10:17:50;;;;;;;10.98;5.62;;;;;;;40.48;35.39;100503.44;1714395;83;21536;-66
2022/06/05 10:20:46;;;;;;;9.23;5.75;;;;;;;40.67;36.17;100513.72;1698543;83;21011;-66
2022/06/05 10:23:35;;;;;;;10.05;5.30;;;;;;;40.24;36.49;100515.23;1703369;83;21051;-65
2022/06/05 10:26:31;;;;;;;10.05;5.75;;;;;;;40.80;35.08;100514.58;1719180;83;21498;-66
2022/06/05 10:29:24;;;;;;;11.65;7.15;;;;;;;41.44;35.27;100516.68;1722681;83;21046;-66
2022/06/05 10:32:15;;;;;;;10.00;6.85;;;;;;;40.89;36.59;100512.95;1718076;83;21090;-66
2022/06/05 10:34:57;;;;;;;8.88;6.50;;;;;;;40.90;37.16;100509.70;1728813;82;21046;-66
2022/06/05 10:37:35;;;;;;;14.35;6.53;;;;;;;40.65;37.62;100513.98;1727329;83;21035;-65
2022/06/05 10:40:30;;;;;;;7.60;5.42;;;;;;;39.84;38.38;100521.53;1717993;82;21067;-66
2022/06/05 10:43:27;;;;;;;6.70;5.70;;;;;;;39.66;38.26;100522.79;1726978;83;21525;-66
2022/06/05 10:46:01;;;;;;;7.35;5.47;;;;;;;39.16;39.32;100526.73;1725520;82;21070;-68
2022/06/05 10:48:53;;;;;;;12.73;5.90;;;;;;;39.02;40.32;100520.16;1738964;81;21424;-67
2022/06/05 10:51:52;;;;;;;7.78;4.97;;;;;;;38.35;41.18;100529.42;1740567;81;21499;-69
2022/06/05 10:54:36;;;;;;;7.28;4.90;;;;;;;38.71;40.84;100523.91;1746377;81;21487;-65
2022/06/05 10:57:25;;;;;;;7.22;5.00;;;;;;;38.91;39.94;100519.22;1741449;82;21070;-66
2022/06/05 11:00:20;;;;;;;7.33;4.78;;;;;;;39.17;40.26;100519.47;1722713;81;21074;-65
2022/06/05 11:03:20;;;;;;;8.15;4.87;;;;;;;39.14;40.31;100526.19;1722780;82;21019;-67
2022/06/05 11:06:25;;;;;;;5.30;4.78;;;;;;;39.22;40.16;100522.21;1729197;82;21538;-66
2022/06/05 11:09:17;;;;;;;7.87;4.78;;;;;;;38.65;40.04;100532.45;1726733;83;21105;-66
2022/06/05 11:15:01;;;;;;;6.22;4.40;;;;;;;37.81;40.66;100526.84;1724658;83;21031;-67
2022/06/05 11:17:52;;;;;;;7.85;4.85;;;;;;;37.89;41.09;100540.38;1724911;82;21090;-65
2022/06/05 11:20:26;;;;;;;5.10;4.17;;;;;;;37.42;42.56;100528.14;1725964;82;21095;-67
2022/06/05 11:23:07;;;;;;;7.12;4.50;;;;;;;37.88;41.65;100531.52;1727440;83;21546;-66
2022/06/05 11:25:40;;;;;;;5.37;4.53;;;;;;;38.14;41.46;100529.70;1721695;83;20999;-66
2022/06/05 11:28:25;;;;;;;9.58;4.50;;;;;;;38.01;41.31;100529.52;1722332;83;21482;-67
2022/06/05 11:31:15;;;;;;;5.92;4.62;;;;;;;37.93;41.78;100533.45;1724183;82;21039;-66
2022/06/05 11:33:56;;;;;;;5.60;4.50;;;;;;;38.27;41.16;100536.05;1717005;83;21075;-67
2022/06/05 11:36:49;;;;;;;6.75;4.28;;;;;;;37.22;41.94;100543.94;1725163;83;21063;-66
2022/06/05 11:39:36;;;;;;;9.28;4.40;;;;;;;36.82;42.06;100533.59;1729946;82;21054;-66
2022/06/05 11:42:39;;;;;;;9.43;4.33;;;;;;;36.22;43.54;100536.18;1720544;83;21027;-67
2022/06/05 11:45:39;;;;;;;5.35;4.20;;;;;;;36.56;43.06;100532.80;1714931;83;21003;-66
2022/06/05 11:48:17;;;;;;;6.03;4.30;;;;;;;35.97;43.41;100539.13;1714689;81;21112;-66
2022/06/05 11:51:23;;;;;;;5.60;4.20;;;;;;;35.64;43.68;100531.66;1696350;83;21587;-65
2022/06/05 11:54:14;;;;;;;5.78;4.30;;;;;;;36.15;43.11;100527.44;1722816;81;21087;-67
2022/06/05 11:57:14;;;;;;;5.65;4.10;;;;;;;35.86;43.29;100531.91;1711490;83;21059;-66
2022/06/05 12:00:15;;;;;;;7.00;4.42;;;;;;;36.10;43.00;100524.11;1714838;81;21469;-66
2022/06/05 12:02:53;;;;;;;8.48;4.50;;;;;;;35.65;43.03;100531.45;1692487;83;21099;-66
2022/06/05 12:05:53;;;;;;;7.35;4.22;;;;;;;35.95;42.67;100531.84;1706551;84;21087;-67
2022/06/05 12:08:25;;;;;;;6.62;4.05;;;;;;;35.10;43.98;100543.74;1716942;82;21515;-66
2022/06/05 12:11:12;;;;;;;5.60;4.28;;;;;;;35.11;43.63;100542.15;1688001;83;21130;-66
2022/06/05 12:13:56;;;;;;;4.37;3.83;;;;;;;34.75;43.97;100539.61;1679347;82;21040;-66
2022/06/05 12:17:05;;;;;;;6.47;3.67;;;;;;;34.61;43.46;100549.13;1725618;83;21086;-67
2022/06/05 12:19:56;;;;;;;5.05;3.30;;;;;;;34.60;43.17;100545.34;1727608;82;21091;-65
2022/06/05 12:22:30;;;;;;;6.97;3.70;;;;;;;34.60;42.66;100538.13;1727289;81;21079;-67
2022/06/05 12:25:14;;;;;;;6.03;3.70;;;;;;;35.30;41.59;100542.94;1689499;83;21071;-66
2022/06/05 12:28:03;;;;;;;7.00;3.87;;;;;;;35.45;41.44;100539.80;1688093;83;21063;-67
2022/06/05 12:30:36;;;;;;;9.00;4.35;;;;;;;35.96;41.08;100547.39;1707348;83;21039;-67
2022/06/05 12:33:50;;;;;;;5.47;3.17;;;;;;;35.96;40.94;100546.86;1729683;81;21094;-66
2022/06/05 12:36:39;;;;;;;6.00;3.60;;;;;;;35.80;40.47;100549.72;1726911;82;21519;-66
2022/06/05 12:39:18;;;;;;;4.72;3.10;;;;;;;35.01;41.11;100541.09;1697143;83;21019;-66
2022/06/05 12:42:18;;;;;;;8.83;3.50;;;;;;;35.12;40.70;100544.33;1704919;83;21132;-68
2022/06/05 12:44:57;;;;;;;7.42;3.40;;;;;;;35.55;40.57;100536.55;1694844;83;21106;-67
2022/06/05 12:48:10;;;;;;;3.95;2.90;;;;;;;34.99;40.73;100538.63;1710741;84;21087;-65
2022/06/05 12:50:55;;;;;;;4.62;2.92;;;;;;;35.50;40.19;100523.03;1721213;82;21039;-66
2022/06/05 12:53:35;;;;;;;5.42;3.35;;;;;;;35.73;40.20;100526.78;1704855;82;21118;-66
2022/06/05 12:56:39;;;;;;;10.55;3.77;;;;;;;35.63;40.21;100522.81;1727109;82;21044;-66
2022/06/05 12:59:19;;;;;;;;;;;;;;;35.01;40.94;100530.39;1692344;84;21126;-66
2022/06/05 13:02:19;;;;;;;4.30;3.20;;;;;;;35.44;40.54;100530.12;1722106;82;20181;-66
2022/06/05 13:05:07;;;;;;;3.47;3.10;;;;;;;35.01;41.05;100521.83;1660780;83;21107;-66
2022/06/05 13:07:57;;;;;;;3.98;3.20;;;;;;;34.71;41.62;100525.87;1663919;82;21495;-66
2022/06/05 13:10:35;;;;;;;6.05;3.35;;;;;;;34.46;42.03;100518.77;1705429;82;21126;-65
2022/06/05 13:13:32;;;;;;;5.65;3.77;;;;;;;33.98;42.45;100512.83;1706752;84;21041;-67
2022/06/05 13:16:04;;;;;;;5.22;3.58;;;;;;;34.82;41.75;100506.39;1723546;83;21118;-66
2022/06/05 13:19:02;;;;;;;7.57;3.80;;;;;;;34.66;41.77;100506.50;1726714;81;21523;-67
2022/06/05 13:21:37;;;;;;;5.53;3.60;;;;;;;34.85;41.38;100503.23;1676236;83;21052;-67
2022/06/05 13:24:34;;;;;;;5.62;3.45;;;;;;;34.95;41.63;100492.52;1705383;83;21094;-67
2022/06/05 13:27:15;;;;;;;4.72;3.50;;;;;;;35.21;41.27;100489.98;1725288;83;21046;-67